sensor_id;sensor_type;location;lat;lon;timestamp;temperature;humidity
20672;DHT22;10495;50.922;4.760;2024-01-15T00:01:29;4.20;85.10
20672;DHT22;10495;50.922;4.760;2024-01-15T00:03:55;4.30;85.20
20672;DHT22;10495;50.922;4.760;2024-01-15T00:06:21;4.20;85.30
20672;DHT22;10495;50.922;4.760;2024-01-15T00:08:46;4.30;85.10
20672;DHT22;10495;50.922;4.760;2024-01-15T00:11:12;4.50;84.60
20672;DHT22;10495;50.922;4.760;2024-01-15T00:13:38;4.50;84.40
20672;DHT22;10495;50.922;4.760;2024-01-15T00:16:06;4.60;84.20
20672;DHT22;10495;50.922;4.760;2024-01-15T00:18:32;4.50;84.60
20672;DHT22;10495;50.922;4.760;2024-01-15T00:20:58;4.70;83.90
20672;DHT22;10495;50.922;4.760;2024-01-15T00:23:23;4.70;83.70
20672;DHT22;10495;50.922;4.760;2024-01-15T00:25:51;4.50;84.40
20672;DHT22;10495;50.922;4.760;2024-01-15T00:28:17;4.70;84.30
20672;DHT22;10495;50.922;4.760;2024-01-15T00:30:42;4.60;84.60
20672;DHT22;10495;50.922;4.760;2024-01-15T00:33:08;4.60;84.70
20672;DHT22;10495;50.922;4.760;2024-01-15T00:35:35;4.60;84.90
20672;DHT22;10495;50.922;4.760;2024-01-15T00:38:00;4.40;85.20
20672;DHT22;10495;50.922;4.760;2024-01-15T00:40:26;4.50;85.00
20672;DHT22;10495;50.922;4.760;2024-01-15T00:42:51;4.70;84.40
20672;DHT22;10495;50.922;4.760;2024-01-15T00:45:17;4.70;84.40
20672;DHT22;10495;50.922;4.760;2024-01-15T00:47:43;4.70;84.60
20672;DHT22;10495;50.922;4.760;2024-01-15T00:50:09;4.60;85.00
20672;DHT22;10495;50.922;4.760;2024-01-15T00:52:35;4.60;85.00
20672;DHT22;10495;50.922;4.760;2024-01-15T00:55:01;4.50;85.40
20672;DHT22;10495;50.922;4.760;2024-01-15T00:57:26;4.60;85.10
20672;DHT22;10495;50.922;4.760;2024-01-15T00:59:52;4.50;85.60
20672;DHT22;10495;50.922;4.760;2024-01-15T01:02:18;4.40;86.20
20672;DHT22;10495;50.922;4.760;2024-01-15T01:04:44;4.40;86.60
20672;DHT22;10495;50.922;4.760;2024-01-15T01:07:09;4.50;86.10
20672;DHT22;10495;50.922;4.760;2024-01-15T01:09:36;4.60;86.00
20672;DHT22;10495;50.922;4.760;2024-01-15T01:12:01;4.60;86.00
20672;DHT22;10495;50.922;4.760;2024-01-15T01:14:27;4.60;86.70
20672;DHT22;10495;50.922;4.760;2024-01-15T01:16:53;4.50;86.70
20672;DHT22;10495;50.922;4.760;2024-01-15T01:19:18;4.60;86.60
20672;DHT22;10495;50.922;4.760;2024-01-15T01:21:44;4.50;87.10
20672;DHT22;10495;50.922;4.760;2024-01-15T01:24:10;4.40;87.20
20672;DHT22;10495;50.922;4.760;2024-01-15T01:26:35;4.20;88.40
20672;DHT22;10495;50.922;4.760;2024-01-15T01:29:01;4.10;88.50
20672;DHT22;10495;50.922;4.760;2024-01-15T01:31:27;3.90;89.30
20672;DHT22;10495;50.922;4.760;2024-01-15T01:33:53;4.30;87.90
20672;DHT22;10495;50.922;4.760;2024-01-15T01:36:18;4.30;87.70
20672;DHT22;10495;50.922;4.760;2024-01-15T01:38:44;4.40;87.60
20672;DHT22;10495;50.922;4.760;2024-01-15T01:41:10;4.30;87.80
20672;DHT22;10495;50.922;4.760;2024-01-15T01:43:36;4.10;88.40
20672;DHT22;10495;50.922;4.760;2024-01-15T01:46:02;4.20;88.50
20672;DHT22;10495;50.922;4.760;2024-01-15T01:48:30;4.30;88.50
20672;DHT22;10495;50.922;4.760;2024-01-15T01:50:59;4.10;88.90
20672;DHT22;10495;50.922;4.760;2024-01-15T01:53:26;4.10;89.00
20672;DHT22;10495;50.922;4.760;2024-01-15T01:55:53;4.20;89.10
20672;DHT22;10495;50.922;4.760;2024-01-15T01:58:19;4.10;89.40
20672;DHT22;10495;50.922;4.760;2024-01-15T02:00:47;4.00;89.60
20672;DHT22;10495;50.922;4.760;2024-01-15T02:03:12;4.20;89.40
20672;DHT22;10495;50.922;4.760;2024-01-15T02:05:39;4.20;89.40
20672;DHT22;10495;50.922;4.760;2024-01-15T02:08:06;4.10;90.00
20672;DHT22;10495;50.922;4.760;2024-01-15T02:10:31;4.20;89.90
20672;DHT22;10495;50.922;4.760;2024-01-15T02:12:57;4.10;90.00
20672;DHT22;10495;50.922;4.760;2024-01-15T02:15:23;4.30;89.60
20672;DHT22;10495;50.922;4.760;2024-01-15T02:18:00;4.20;89.90
20672;DHT22;10495;50.922;4.760;2024-01-15T02:20:26;4.20;90.00
20672;DHT22;10495;50.922;4.760;2024-01-15T02:22:52;4.20;90.10
20672;DHT22;10495;50.922;4.760;2024-01-15T02:25:18;4.20;90.20
20672;DHT22;10495;50.922;4.760;2024-01-15T02:27:44;4.30;90.10
20672;DHT22;10495;50.922;4.760;2024-01-15T02:30:12;4.30;90.00
20672;DHT22;10495;50.922;4.760;2024-01-15T02:32:38;4.40;89.40
20672;DHT22;10495;50.922;4.760;2024-01-15T02:35:04;4.40;89.30
20672;DHT22;10495;50.922;4.760;2024-01-15T02:37:30;4.40;89.70
20672;DHT22;10495;50.922;4.760;2024-01-15T02:39:56;4.40;89.30
20672;DHT22;10495;50.922;4.760;2024-01-15T02:42:21;4.40;89.60
20672;DHT22;10495;50.922;4.760;2024-01-15T02:44:47;4.40;90.00
20672;DHT22;10495;50.922;4.760;2024-01-15T02:47:14;4.40;89.90
20672;DHT22;10495;50.922;4.760;2024-01-15T02:49:40;4.40;90.00
20672;DHT22;10495;50.922;4.760;2024-01-15T02:52:06;4.30;90.00
20672;DHT22;10495;50.922;4.760;2024-01-15T02:54:32;4.30;90.10
20672;DHT22;10495;50.922;4.760;2024-01-15T02:56:57;4.30;90.10
20672;DHT22;10495;50.922;4.760;2024-01-15T02:59:23;4.40;90.00
20672;DHT22;10495;50.922;4.760;2024-01-15T03:01:49;4.50;89.80
20672;DHT22;10495;50.922;4.760;2024-01-15T03:04:14;4.50;90.00
20672;DHT22;10495;50.922;4.760;2024-01-15T03:06:40;4.50;89.60
20672;DHT22;10495;50.922;4.760;2024-01-15T03:09:05;4.30;90.00
20672;DHT22;10495;50.922;4.760;2024-01-15T03:11:40;4.40;90.00
20672;DHT22;10495;50.922;4.760;2024-01-15T03:14:06;4.50;89.80
20672;DHT22;10495;50.922;4.760;2024-01-15T03:16:32;4.40;90.00
20672;DHT22;10495;50.922;4.760;2024-01-15T03:18:58;4.40;90.10
20672;DHT22;10495;50.922;4.760;2024-01-15T03:21:23;4.30;90.10
20672;DHT22;10495;50.922;4.760;2024-01-15T03:23:49;4.50;90.10
20672;DHT22;10495;50.922;4.760;2024-01-15T03:26:14;4.50;89.70
20672;DHT22;10495;50.922;4.760;2024-01-15T03:28:41;4.50;90.00
20672;DHT22;10495;50.922;4.760;2024-01-15T03:31:07;4.50;90.20
20672;DHT22;10495;50.922;4.760;2024-01-15T03:33:33;4.50;90.00
20672;DHT22;10495;50.922;4.760;2024-01-15T03:35:59;4.60;90.00
20672;DHT22;10495;50.922;4.760;2024-01-15T03:38:27;4.80;89.30
20672;DHT22;10495;50.922;4.760;2024-01-15T03:40:52;4.70;89.40
20672;DHT22;10495;50.922;4.760;2024-01-15T03:43:18;4.50;90.00
20672;DHT22;10495;50.922;4.760;2024-01-15T03:45:44;4.40;90.20
20672;DHT22;10495;50.922;4.760;2024-01-15T03:48:09;4.40;90.40
20672;DHT22;10495;50.922;4.760;2024-01-15T03:50:35;4.60;90.20
20672;DHT22;10495;50.922;4.760;2024-01-15T03:53:00;4.60;90.00
20672;DHT22;10495;50.922;4.760;2024-01-15T03:55:26;4.70;89.80
20672;DHT22;10495;50.922;4.760;2024-01-15T03:57:52;4.50;90.00
20672;DHT22;10495;50.922;4.760;2024-01-15T04:00:18;4.40;90.10
20672;DHT22;10495;50.922;4.760;2024-01-15T04:02:43;4.40;90.30
20672;DHT22;10495;50.922;4.760;2024-01-15T04:05:10;4.20;90.50
20672;DHT22;10495;50.922;4.760;2024-01-15T04:07:35;4.30;90.40
20672;DHT22;10495;50.922;4.760;2024-01-15T04:10:01;4.40;89.90
20672;DHT22;10495;50.922;4.760;2024-01-15T04:12:27;4.20;90.10
20672;DHT22;10495;50.922;4.760;2024-01-15T04:14:52;4.20;90.30
20672;DHT22;10495;50.922;4.760;2024-01-15T04:17:18;3.80;90.80
20672;DHT22;10495;50.922;4.760;2024-01-15T04:19:44;3.90;90.70
20672;DHT22;10495;50.922;4.760;2024-01-15T04:22:10;4.10;90.50
20672;DHT22;10495;50.922;4.760;2024-01-15T04:24:35;4.00;90.30
20672;DHT22;10495;50.922;4.760;2024-01-15T04:27:01;4.00;90.60
20672;DHT22;10495;50.922;4.760;2024-01-15T04:29:27;4.10;90.40
20672;DHT22;10495;50.922;4.760;2024-01-15T04:31:53;4.20;90.20
20672;DHT22;10495;50.922;4.760;2024-01-15T04:34:19;4.30;89.60
20672;DHT22;10495;50.922;4.760;2024-01-15T04:36:44;4.00;90.20
20672;DHT22;10495;50.922;4.760;2024-01-15T04:39:10;4.20;90.00
20672;DHT22;10495;50.922;4.760;2024-01-15T04:41:37;4.00;90.00
20672;DHT22;10495;50.922;4.760;2024-01-15T04:44:03;4.00;90.20
20672;DHT22;10495;50.922;4.760;2024-01-15T04:46:28;4.00;90.00
20672;DHT22;10495;50.922;4.760;2024-01-15T04:48:54;4.00;90.30
20672;DHT22;10495;50.922;4.760;2024-01-15T04:51:20;3.90;90.20
20672;DHT22;10495;50.922;4.760;2024-01-15T04:53:45;3.80;90.30
20672;DHT22;10495;50.922;4.760;2024-01-15T04:56:11;3.80;89.70
20672;DHT22;10495;50.922;4.760;2024-01-15T04:58:37;3.70;90.00
20672;DHT22;10495;50.922;4.760;2024-01-15T05:01:02;3.90;89.70
20672;DHT22;10495;50.922;4.760;2024-01-15T05:03:29;3.80;89.70
20672;DHT22;10495;50.922;4.760;2024-01-15T05:05:55;3.80;89.40
20672;DHT22;10495;50.922;4.760;2024-01-15T05:08:20;3.90;89.20
20672;DHT22;10495;50.922;4.760;2024-01-15T05:10:47;3.70;89.60
20672;DHT22;10495;50.922;4.760;2024-01-15T05:13:13;3.70;89.30
20672;DHT22;10495;50.922;4.760;2024-01-15T05:15:39;3.60;89.50
20672;DHT22;10495;50.922;4.760;2024-01-15T05:18:05;3.70;89.20
20672;DHT22;10495;50.922;4.760;2024-01-15T05:20:30;3.70;89.40
20672;DHT22;10495;50.922;4.760;2024-01-15T05:22:56;3.60;89.70
20672;DHT22;10495;50.922;4.760;2024-01-15T05:25:22;3.50;90.00
20672;DHT22;10495;50.922;4.760;2024-01-15T05:27:48;3.40;90.00
20672;DHT22;10495;50.922;4.760;2024-01-15T05:30:14;3.50;89.60
20672;DHT22;10495;50.922;4.760;2024-01-15T05:32:40;3.50;89.80
20672;DHT22;10495;50.922;4.760;2024-01-15T05:35:05;3.50;89.90
20672;DHT22;10495;50.922;4.760;2024-01-15T05:37:31;3.40;89.60
20672;DHT22;10495;50.922;4.760;2024-01-15T05:39:57;3.50;90.00
20672;DHT22;10495;50.922;4.760;2024-01-15T05:42:22;3.40;90.10
20672;DHT22;10495;50.922;4.760;2024-01-15T05:44:48;3.40;90.10
20672;DHT22;10495;50.922;4.760;2024-01-15T05:47:14;3.40;90.20
20672;DHT22;10495;50.922;4.760;2024-01-15T05:49:39;3.50;90.20
20672;DHT22;10495;50.922;4.760;2024-01-15T05:52:05;3.40;90.20
20672;DHT22;10495;50.922;4.760;2024-01-15T05:54:31;3.40;90.10
20672;DHT22;10495;50.922;4.760;2024-01-15T05:56:57;3.30;90.30
20672;DHT22;10495;50.922;4.760;2024-01-15T05:59:23;3.40;90.20
20672;DHT22;10495;50.922;4.760;2024-01-15T06:01:48;3.50;90.20
20672;DHT22;10495;50.922;4.760;2024-01-15T06:04:14;3.60;90.00
20672;DHT22;10495;50.922;4.760;2024-01-15T06:06:40;3.60;89.60
20672;DHT22;10495;50.922;4.760;2024-01-15T06:09:05;3.60;90.10
20672;DHT22;10495;50.922;4.760;2024-01-15T06:11:34;3.40;90.10
20672;DHT22;10495;50.922;4.760;2024-01-15T06:14:00;3.30;90.40
20672;DHT22;10495;50.922;4.760;2024-01-15T06:16:26;3.20;90.70
20672;DHT22;10495;50.922;4.760;2024-01-15T06:18:51;3.40;90.50
20672;DHT22;10495;50.922;4.760;2024-01-15T06:21:17;3.50;90.30
20672;DHT22;10495;50.922;4.760;2024-01-15T06:23:43;3.30;90.30
20672;DHT22;10495;50.922;4.760;2024-01-15T06:26:08;3.40;90.50
20672;DHT22;10495;50.922;4.760;2024-01-15T06:28:36;3.60;90.10
20672;DHT22;10495;50.922;4.760;2024-01-15T06:31:02;3.50;90.20
20672;DHT22;10495;50.922;4.760;2024-01-15T06:33:27;3.40;90.20
20672;DHT22;10495;50.922;4.760;2024-01-15T06:35:53;3.40;90.40
20672;DHT22;10495;50.922;4.760;2024-01-15T06:38:19;3.50;90.30
20672;DHT22;10495;50.922;4.760;2024-01-15T06:40:44;3.60;90.20
20672;DHT22;10495;50.922;4.760;2024-01-15T06:43:11;3.70;90.10
20672;DHT22;10495;50.922;4.760;2024-01-15T06:45:37;3.70;90.00
20672;DHT22;10495;50.922;4.760;2024-01-15T06:48:03;3.70;90.00
20672;DHT22;10495;50.922;4.760;2024-01-15T06:50:29;3.60;90.10
20672;DHT22;10495;50.922;4.760;2024-01-15T06:52:54;3.60;90.10
20672;DHT22;10495;50.922;4.760;2024-01-15T06:55:20;3.70;90.00
20672;DHT22;10495;50.922;4.760;2024-01-15T06:57:45;3.70;90.00
20672;DHT22;10495;50.922;4.760;2024-01-15T07:00:11;3.80;89.60
20672;DHT22;10495;50.922;4.760;2024-01-15T07:02:37;3.60;89.80
20672;DHT22;10495;50.922;4.760;2024-01-15T07:05:03;3.70;89.70
20672;DHT22;10495;50.922;4.760;2024-01-15T07:07:30;3.70;89.20
20672;DHT22;10495;50.922;4.760;2024-01-15T07:09:56;3.70;89.20
20672;DHT22;10495;50.922;4.760;2024-01-15T07:12:22;3.60;88.90
20672;DHT22;10495;50.922;4.760;2024-01-15T07:14:48;3.60;88.60
20672;DHT22;10495;50.922;4.760;2024-01-15T07:17:14;3.60;89.00
20672;DHT22;10495;50.922;4.760;2024-01-15T07:19:40;3.80;88.50
20672;DHT22;10495;50.922;4.760;2024-01-15T07:22:06;3.80;88.20
20672;DHT22;10495;50.922;4.760;2024-01-15T07:24:32;3.50;88.50
20672;DHT22;10495;50.922;4.760;2024-01-15T07:27:00;3.60;88.50
20672;DHT22;10495;50.922;4.760;2024-01-15T07:29:25;3.70;88.40
20672;DHT22;10495;50.922;4.760;2024-01-15T07:31:51;3.60;88.10
20672;DHT22;10495;50.922;4.760;2024-01-15T07:34:17;3.50;88.50
20672;DHT22;10495;50.922;4.760;2024-01-15T07:36:46;3.30;89.30
20672;DHT22;10495;50.922;4.760;2024-01-15T07:39:12;3.40;89.50
20672;DHT22;10495;50.922;4.760;2024-01-15T07:41:37;3.50;89.30
20672;DHT22;10495;50.922;4.760;2024-01-15T07:44:04;3.50;88.90
20672;DHT22;10495;50.922;4.760;2024-01-15T07:46:30;3.60;88.40
20672;DHT22;10495;50.922;4.760;2024-01-15T07:48:55;3.70;88.10
20672;DHT22;10495;50.922;4.760;2024-01-15T07:51:26;3.50;88.20
20672;DHT22;10495;50.922;4.760;2024-01-15T07:53:54;3.50;88.40
20672;DHT22;10495;50.922;4.760;2024-01-15T07:56:21;3.50;88.50
20672;DHT22;10495;50.922;4.760;2024-01-15T07:58:47;3.60;88.50
20672;DHT22;10495;50.922;4.760;2024-01-15T08:01:12;3.60;88.00
20672;DHT22;10495;50.922;4.760;2024-01-15T08:03:38;3.60;88.30
20672;DHT22;10495;50.922;4.760;2024-01-15T08:06:05;3.60;88.10
20672;DHT22;10495;50.922;4.760;2024-01-15T08:08:31;3.70;87.60
20672;DHT22;10495;50.922;4.760;2024-01-15T08:10:57;3.90;86.70
20672;DHT22;10495;50.922;4.760;2024-01-15T08:13:22;3.90;86.90
20672;DHT22;10495;50.922;4.760;2024-01-15T08:15:48;3.60;87.80
20672;DHT22;10495;50.922;4.760;2024-01-15T08:18:15;3.70;88.60
20672;DHT22;10495;50.922;4.760;2024-01-15T08:20:41;3.80;87.70
20672;DHT22;10495;50.922;4.760;2024-01-15T08:23:06;3.70;88.30
20672;DHT22;10495;50.922;4.760;2024-01-15T08:25:32;3.60;88.50
20672;DHT22;10495;50.922;4.760;2024-01-15T08:27:58;3.70;88.80
20672;DHT22;10495;50.922;4.760;2024-01-15T08:30:23;3.60;89.10
20672;DHT22;10495;50.922;4.760;2024-01-15T08:32:56;3.80;88.80
20672;DHT22;10495;50.922;4.760;2024-01-15T08:35:22;4.00;88.10
20672;DHT22;10495;50.922;4.760;2024-01-15T08:37:52;3.90;87.90
20672;DHT22;10495;50.922;4.760;2024-01-15T08:40:18;3.90;88.20
20672;DHT22;10495;50.922;4.760;2024-01-15T08:42:44;3.90;88.00
20672;DHT22;10495;50.922;4.760;2024-01-15T08:45:11;4.10;87.40
20672;DHT22;10495;50.922;4.760;2024-01-15T08:47:37;4.10;87.30
20672;DHT22;10495;50.922;4.760;2024-01-15T08:50:02;4.00;87.70
20672;DHT22;10495;50.922;4.760;2024-01-15T08:52:29;4.20;87.70
20672;DHT22;10495;50.922;4.760;2024-01-15T08:54:58;4.20;87.10
20672;DHT22;10495;50.922;4.760;2024-01-15T08:57:25;4.20;86.90
20672;DHT22;10495;50.922;4.760;2024-01-15T08:59:51;4.20;86.60
20672;DHT22;10495;50.922;4.760;2024-01-15T09:02:17;4.30;86.50
20672;DHT22;10495;50.922;4.760;2024-01-15T09:04:42;4.30;86.00
20672;DHT22;10495;50.922;4.760;2024-01-15T09:07:08;4.30;85.80
20672;DHT22;10495;50.922;4.760;2024-01-15T09:09:33;4.30;85.00
20672;DHT22;10495;50.922;4.760;2024-01-15T09:12:00;4.30;85.70
20672;DHT22;10495;50.922;4.760;2024-01-15T09:14:26;4.40;85.40
20672;DHT22;10495;50.922;4.760;2024-01-15T09:16:53;4.30;85.30
20672;DHT22;10495;50.922;4.760;2024-01-15T09:19:19;4.30;85.50
20672;DHT22;10495;50.922;4.760;2024-01-15T09:21:44;4.50;84.90
20672;DHT22;10495;50.922;4.760;2024-01-15T09:24:11;4.50;84.70
20672;DHT22;10495;50.922;4.760;2024-01-15T09:26:36;4.40;84.90
20672;DHT22;10495;50.922;4.760;2024-01-15T09:29:02;4.50;84.90
20672;DHT22;10495;50.922;4.760;2024-01-15T09:31:28;4.70;83.90
20672;DHT22;10495;50.922;4.760;2024-01-15T09:33:54;4.50;84.40
20672;DHT22;10495;50.922;4.760;2024-01-15T09:36:25;4.50;84.70
20672;DHT22;10495;50.922;4.760;2024-01-15T09:38:51;4.70;84.20
20672;DHT22;10495;50.922;4.760;2024-01-15T09:41:17;4.60;83.80
20672;DHT22;10495;50.922;4.760;2024-01-15T09:43:43;4.70;83.60
20672;DHT22;10495;50.922;4.760;2024-01-15T09:46:09;4.90;83.20
20672;DHT22;10495;50.922;4.760;2024-01-15T09:48:35;4.90;83.10
20672;DHT22;10495;50.922;4.760;2024-01-15T09:51:01;5.00;83.10
20672;DHT22;10495;50.922;4.760;2024-01-15T09:53:27;5.00;83.00
20672;DHT22;10495;50.922;4.760;2024-01-15T09:55:53;5.10;81.60
20672;DHT22;10495;50.922;4.760;2024-01-15T09:58:19;5.10;82.00
20672;DHT22;10495;50.922;4.760;2024-01-15T10:00:48;5.20;82.40
20672;DHT22;10495;50.922;4.760;2024-01-15T10:03:15;5.20;81.60
20672;DHT22;10495;50.922;4.760;2024-01-15T10:05:41;5.20;80.60
20672;DHT22;10495;50.922;4.760;2024-01-15T10:08:07;5.30;80.70
20672;DHT22;10495;50.922;4.760;2024-01-15T10:10:33;5.30;80.40
20672;DHT22;10495;50.922;4.760;2024-01-15T10:13:01;5.20;80.20
20672;DHT22;10495;50.922;4.760;2024-01-15T10:15:28;5.40;80.00
20672;DHT22;10495;50.922;4.760;2024-01-15T10:17:54;5.20;79.60
20672;DHT22;10495;50.922;4.760;2024-01-15T10:20:20;5.20;79.60
20672;DHT22;10495;50.922;4.760;2024-01-15T10:22:48;5.20;79.70
20672;DHT22;10495;50.922;4.760;2024-01-15T10:25:15;5.30;79.60
20672;DHT22;10495;50.922;4.760;2024-01-15T10:27:43;5.30;79.40
20672;DHT22;10495;50.922;4.760;2024-01-15T10:30:09;5.30;79.60
20672;DHT22;10495;50.922;4.760;2024-01-15T10:32:35;5.20;79.30
20672;DHT22;10495;50.922;4.760;2024-01-15T10:35:01;5.10;79.60
20672;DHT22;10495;50.922;4.760;2024-01-15T10:37:27;5.10;80.00
20672;DHT22;10495;50.922;4.760;2024-01-15T10:39:53;5.10;79.50
20672;DHT22;10495;50.922;4.760;2024-01-15T10:42:18;5.20;79.10
20672;DHT22;10495;50.922;4.760;2024-01-15T10:44:44;5.20;78.50
20672;DHT22;10495;50.922;4.760;2024-01-15T10:47:12;5.20;78.80
20672;DHT22;10495;50.922;4.760;2024-01-15T10:49:38;5.30;78.40
20672;DHT22;10495;50.922;4.760;2024-01-15T10:52:05;5.20;78.20
20672;DHT22;10495;50.922;4.760;2024-01-15T10:54:31;5.30;78.10
20672;DHT22;10495;50.922;4.760;2024-01-15T10:56:57;5.30;77.80
20672;DHT22;10495;50.922;4.760;2024-01-15T10:59:23;5.30;77.60
20672;DHT22;10495;50.922;4.760;2024-01-15T11:01:52;5.40;77.90
20672;DHT22;10495;50.922;4.760;2024-01-15T11:04:20;5.30;78.30
20672;DHT22;10495;50.922;4.760;2024-01-15T11:06:51;5.40;77.20
20672;DHT22;10495;50.922;4.760;2024-01-15T11:09:17;5.30;77.50
20672;DHT22;10495;50.922;4.760;2024-01-15T11:11:45;5.40;77.90
20672;DHT22;10495;50.922;4.760;2024-01-15T11:17:00;5.30;78.70
20672;DHT22;10495;50.922;4.760;2024-01-15T11:19:38;5.50;77.90
20672;DHT22;10495;50.922;4.760;2024-01-15T11:22:07;5.50;77.80
20672;DHT22;10495;50.922;4.760;2024-01-15T11:27:00;5.70;77.00
20672;DHT22;10495;50.922;4.760;2024-01-15T11:34:21;5.70;77.30
20672;DHT22;10495;50.922;4.760;2024-01-15T11:42:01;6.10;76.20
20672;DHT22;10495;50.922;4.760;2024-01-15T11:44:28;6.10;75.40
20672;DHT22;10495;50.922;4.760;2024-01-15T11:46:58;6.10;74.60
20672;DHT22;10495;50.922;4.760;2024-01-15T11:50:00;6.10;75.10
20672;DHT22;10495;50.922;4.760;2024-01-15T11:52:32;6.20;74.00
20672;DHT22;10495;50.922;4.760;2024-01-15T11:55:11;6.20;74.60
20672;DHT22;10495;50.922;4.760;2024-01-15T12:00:10;6.00;75.70
20672;DHT22;10495;50.922;4.760;2024-01-15T12:02:38;6.00;74.60
20672;DHT22;10495;50.922;4.760;2024-01-15T12:05:04;6.00;75.10
20672;DHT22;10495;50.922;4.760;2024-01-15T12:07:29;6.00;75.40
20672;DHT22;10495;50.922;4.760;2024-01-15T12:09:55;6.30;74.90
20672;DHT22;10495;50.922;4.760;2024-01-15T12:12:39;6.40;75.40
20672;DHT22;10495;50.922;4.760;2024-01-15T12:15:05;6.50;74.30
20672;DHT22;10495;50.922;4.760;2024-01-15T12:17:31;6.50;72.30
20672;DHT22;10495;50.922;4.760;2024-01-15T12:19:57;6.40;70.90
20672;DHT22;10495;50.922;4.760;2024-01-15T12:22:23;6.40;71.20
20672;DHT22;10495;50.922;4.760;2024-01-15T12:24:48;6.40;71.60
20672;DHT22;10495;50.922;4.760;2024-01-15T12:27:14;6.40;72.00
20672;DHT22;10495;50.922;4.760;2024-01-15T12:29:40;6.50;72.10
20672;DHT22;10495;50.922;4.760;2024-01-15T12:32:06;6.50;70.60
20672;DHT22;10495;50.922;4.760;2024-01-15T12:34:33;6.50;71.30
20672;DHT22;10495;50.922;4.760;2024-01-15T12:36:59;6.60;71.00
20672;DHT22;10495;50.922;4.760;2024-01-15T12:39:24;6.40;71.90
20672;DHT22;10495;50.922;4.760;2024-01-15T12:41:51;6.50;71.50
20672;DHT22;10495;50.922;4.760;2024-01-15T12:44:17;6.50;72.40
20672;DHT22;10495;50.922;4.760;2024-01-15T12:46:42;6.40;71.40
20672;DHT22;10495;50.922;4.760;2024-01-15T12:49:08;6.30;72.60
20672;DHT22;10495;50.922;4.760;2024-01-15T12:51:37;6.40;72.40
20672;DHT22;10495;50.922;4.760;2024-01-15T12:54:03;6.50;71.70
20672;DHT22;10495;50.922;4.760;2024-01-15T12:56:31;6.30;72.80
20672;DHT22;10495;50.922;4.760;2024-01-15T12:58:57;6.40;72.20
20672;DHT22;10495;50.922;4.760;2024-01-15T13:01:23;6.30;75.00
20672;DHT22;10495;50.922;4.760;2024-01-15T13:03:48;5.80;79.10
20672;DHT22;10495;50.922;4.760;2024-01-15T13:06:14;5.50;80.40
20672;DHT22;10495;50.922;4.760;2024-01-15T13:08:40;5.20;82.90
20672;DHT22;10495;50.922;4.760;2024-01-15T13:11:05;5.00;84.50
20672;DHT22;10495;50.922;4.760;2024-01-15T13:13:31;4.40;86.80
20672;DHT22;10495;50.922;4.760;2024-01-15T13:15:59;4.10;88.10
20672;DHT22;10495;50.922;4.760;2024-01-15T13:18:25;4.20;88.80
20672;DHT22;10495;50.922;4.760;2024-01-15T13:20:51;4.30;88.70
20672;DHT22;10495;50.922;4.760;2024-01-15T13:23:16;4.10;89.40
20672;DHT22;10495;50.922;4.760;2024-01-15T13:25:42;4.30;88.90
20672;DHT22;10495;50.922;4.760;2024-01-15T13:28:08;4.20;89.10
20672;DHT22;10495;50.922;4.760;2024-01-15T13:30:33;4.10;89.60
20672;DHT22;10495;50.922;4.760;2024-01-15T13:32:59;4.20;90.00
20672;DHT22;10495;50.922;4.760;2024-01-15T13:35:29;4.10;90.20
20672;DHT22;10495;50.922;4.760;2024-01-15T13:37:55;4.20;90.30
20672;DHT22;10495;50.922;4.760;2024-01-15T13:40:21;4.20;90.50
20672;DHT22;10495;50.922;4.760;2024-01-15T13:42:47;4.20;90.20
20672;DHT22;10495;50.922;4.760;2024-01-15T13:45:13;4.30;90.50
20672;DHT22;10495;50.922;4.760;2024-01-15T13:47:42;4.50;90.10
20672;DHT22;10495;50.922;4.760;2024-01-15T13:50:09;4.50;89.90
20672;DHT22;10495;50.922;4.760;2024-01-15T13:52:35;4.50;89.60
20672;DHT22;10495;50.922;4.760;2024-01-15T13:55:01;4.40;89.80
20672;DHT22;10495;50.922;4.760;2024-01-15T13:57:27;4.30;89.30
20672;DHT22;10495;50.922;4.760;2024-01-15T13:59:53;4.40;89.30
20672;DHT22;10495;50.922;4.760;2024-01-15T14:02:18;4.30;89.10
20672;DHT22;10495;50.922;4.760;2024-01-15T14:04:45;4.40;88.80
20672;DHT22;10495;50.922;4.760;2024-01-15T14:07:11;4.30;89.10
20672;DHT22;10495;50.922;4.760;2024-01-15T14:09:36;4.20;89.60
20672;DHT22;10495;50.922;4.760;2024-01-15T14:12:03;4.40;89.40
20672;DHT22;10495;50.922;4.760;2024-01-15T14:14:29;4.30;89.20
20672;DHT22;10495;50.922;4.760;2024-01-15T14:16:54;4.30;89.50
20672;DHT22;10495;50.922;4.760;2024-01-15T14:19:20;4.30;89.80
20672;DHT22;10495;50.922;4.760;2024-01-15T14:21:46;4.30;90.10
20672;DHT22;10495;50.922;4.760;2024-01-15T14:24:11;4.50;89.70
20672;DHT22;10495;50.922;4.760;2024-01-15T14:26:37;4.50;89.30
20672;DHT22;10495;50.922;4.760;2024-01-15T14:29:03;4.50;89.40
20672;DHT22;10495;50.922;4.760;2024-01-15T14:31:28;4.30;89.30
20672;DHT22;10495;50.922;4.760;2024-01-15T14:33:54;4.30;89.00
20672;DHT22;10495;50.922;4.760;2024-01-15T14:36:20;4.00;90.00
20672;DHT22;10495;50.922;4.760;2024-01-15T14:38:46;3.90;90.20
20672;DHT22;10495;50.922;4.760;2024-01-15T14:41:12;3.80;90.30
20672;DHT22;10495;50.922;4.760;2024-01-15T14:43:38;3.90;90.20
20672;DHT22;10495;50.922;4.760;2024-01-15T14:46:04;3.90;90.20
20672;DHT22;10495;50.922;4.760;2024-01-15T14:48:29;4.10;90.20
20672;DHT22;10495;50.922;4.760;2024-01-15T14:50:55;3.90;90.20
20672;DHT22;10495;50.922;4.760;2024-01-15T14:53:20;4.00;90.20
20672;DHT22;10495;50.922;4.760;2024-01-15T14:55:46;4.00;90.30
20672;DHT22;10495;50.922;4.760;2024-01-15T14:58:12;4.00;90.50
20672;DHT22;10495;50.922;4.760;2024-01-15T15:00:38;3.90;90.70
20672;DHT22;10495;50.922;4.760;2024-01-15T15:03:03;3.90;90.70
20672;DHT22;10495;50.922;4.760;2024-01-15T15:05:29;3.90;90.80
20672;DHT22;10495;50.922;4.760;2024-01-15T15:07:55;4.00;90.80
20672;DHT22;10495;50.922;4.760;2024-01-15T15:10:20;4.10;90.70
20672;DHT22;10495;50.922;4.760;2024-01-15T15:12:46;4.30;90.60
20672;DHT22;10495;50.922;4.760;2024-01-15T15:15:12;4.30;90.50
20672;DHT22;10495;50.922;4.760;2024-01-15T15:17:39;4.40;90.40
20672;DHT22;10495;50.922;4.760;2024-01-15T15:20:06;4.50;90.30
20672;DHT22;10495;50.922;4.760;2024-01-15T15:22:32;4.40;90.50
20672;DHT22;10495;50.922;4.760;2024-01-15T15:24:57;4.50;90.20
20672;DHT22;10495;50.922;4.760;2024-01-15T15:27:23;4.20;89.90
20672;DHT22;10495;50.922;4.760;2024-01-15T15:29:49;4.30;90.10
20672;DHT22;10495;50.922;4.760;2024-01-15T15:32:16;3.90;90.20
20672;DHT22;10495;50.922;4.760;2024-01-15T15:34:41;3.70;90.70
20672;DHT22;10495;50.922;4.760;2024-01-15T15:37:07;4.00;90.50
20672;DHT22;10495;50.922;4.760;2024-01-15T15:39:32;4.10;90.00
20672;DHT22;10495;50.922;4.760;2024-01-15T15:41:58;3.80;90.20
20672;DHT22;10495;50.922;4.760;2024-01-15T15:44:24;3.80;90.50
20672;DHT22;10495;50.922;4.760;2024-01-15T15:46:50;4.00;90.30
20672;DHT22;10495;50.922;4.760;2024-01-15T15:49:15;4.10;90.10
20672;DHT22;10495;50.922;4.760;2024-01-15T15:51:41;4.10;90.10
20672;DHT22;10495;50.922;4.760;2024-01-15T15:54:07;4.10;89.80
20672;DHT22;10495;50.922;4.760;2024-01-15T15:56:33;4.40;89.00